Time;durP1;ratioP1;P1;durP2;ratioP2;P2;SDS_P1;SDS_P2;PMS_P1;PMS_P2;Temp;Humidity;BMP_temperature;BMP_pressure;BME280_temperature;BME280_humidity;BME280_pressure;Samples;Min_cycle;Max_cycle;Signal;HPM_P1;HPM_P2
2023/05/17 00:01:20;;;;;;;51.08;22.50;;;;;;;;;;4924851;29;20056;-68
2023/05/17 00:03:47;;;;;;;52.08;24.63;;;;;;;;;;4926438;29;20052;-69
2023/05/17 00:06:13;;;;;;;79.40;26.13;;;;;;;;;;4928919;29;20055;-67
2023/05/17 00:08:40;;;;;;;66.28;24.90;;;;;;;;;;4925589;29;20042;-69
2023/05/17 00:11:06;;;;;;;99.28;30.30;;;;;;;;;;4925013;29;20101;-68
2023/05/17 00:13:33;;;;;;;80.07;28.65;;;;;;;;;;4925555;29;20047;-68
2023/05/17 00:15:59;;;;;;;58.58;27.30;;;;;;;;;;4911947;29;20486;-69
2023/05/17 00:18:26;;;;;;;68.35;27.48;;;;;;;;;;4928774;29;20039;-68
2023/05/17 00:20:53;;;;;;;53.92;27.23;;;;;;;;;;4924887;29;20035;-68
2023/05/17 00:23:19;;;;;;;59.63;25.67;;;;;;;;;;4926099;29;20067;-68
2023/05/17 00:25:46;;;;;;;91.55;30.52;;;;;;;;;;4924219;29;20052;-68
2023/05/17 00:28:12;;;;;;;42.42;27.35;;;;;;;;;;4929890;29;20481;-68
2023/05/17 00:30:39;;;;;;;63.80;29.58;;;;;;;;;;4923637;29;20047;-68
2023/05/17 00:33:05;;;;;;;59.63;29.40;;;;;;;;;;4925420;29;20094;-67
2023/05/17 00:35:32;;;;;;;81.35;30.30;;;;;;;;;;4926143;29;20433;-67
2023/05/17 00:37:59;;;;;;;84.65;30.45;;;;;;;;;;4923941;29;20070;-68
2023/05/17 00:40:25;;;;;;;71.80;34.30;;;;;;;;;;4926177;29;20490;-68
2023/05/17 00:42:52;;;;;;;72.43;33.22;;;;;;;;;;4925086;29;20110;-68
2023/05/17 00:45:20;;;;;;;49.38;24.67;;;;;;;;;;4923198;29;20099;-68
2023/05/17 00:47:47;;;;;;;68.35;29.55;;;;;;;;;;4928623;29;20050;-68
2023/05/17 00:50:14;;;;;;;76.57;30.75;;;;;;;;;;4925618;29;20047;-68
2023/05/17 00:52:40;;;;;;;52.45;27.20;;;;;;;;;;4923677;29;20592;-68
2023/05/17 00:55:07;;;;;;;55.28;27.05;;;;;;;;;;4924271;29;20122;-68
2023/05/17 00:57:34;;;;;;;84.75;28.27;;;;;;;;;;4924696;29;20044;-68
2023/05/17 01:00:01;;;;;;;57.00;25.52;;;;;;;;;;4928395;29;20044;-68
2023/05/17 01:02:28;;;;;;;64.55;24.95;;;;;;;;;;4927680;29;20086;-68
2023/05/17 01:04:56;;;;;;;48.97;25.55;;;;;;;;;;4909894;29;20060;-69
2023/05/17 01:07:22;;;;;;;78.88;29.73;;;;;;;;;;4923671;29;20525;-68
2023/05/17 01:09:49;;;;;;;55.75;26.63;;;;;;;;;;4905075;29;20634;-69
2023/05/17 01:12:19;;;;;;;58.40;29.23;;;;;;;;;;4928724;29;22155;-69
2023/05/17 01:14:51;;;;;;;88.60;29.27;;;;;;;;;;4924614;29;20080;-69
2023/05/17 01:17:20;;;;;;;59.10;26.77;;;;;;;;;;4926745;29;20106;-68
2023/05/17 01:19:47;;;;;;;59.70;28.23;;;;;;;;;;4928257;29;20047;-68
2023/05/17 01:22:21;;;;;;;71.15;29.33;;;;;;;;;;4929288;29;20071;-69
2023/05/17 01:24:57;;;;;;;53.05;27.45;;;;;;;;;;4929715;29;20035;-68
2023/05/17 01:27:24;;;;;;;94.07;30.70;;;;;;;;;;4926840;29;20114;-67
2023/05/17 01:29:53;;;;;;;65.85;27.75;;;;;;;;;;4927603;29;20070;-68
2023/05/17 01:32:20;;;;;;;59.13;28.25;;;;;;;;;;4924452;29;20051;-68
2023/05/17 01:34:49;;;;;;;66.82;28.83;;;;;;;;;;4923134;29;20273;-68
2023/05/17 01:37:16;;;;;;;50.28;25.73;;;;;;;;;;4895077;29;20516;-68
2023/05/17 01:39:42;;;;;;;68.60;28.30;;;;;;;;;;4922282;29;20044;-68
2023/05/17 01:42:15;;;;;;;61.53;30.17;;;;;;;;;;4923787;29;20059;-69
2023/05/17 01:44:48;;;;;;;69.53;28.15;;;;;;;;;;4927043;29;20036;-68
2023/05/17 01:47:32;;;;;;;61.53;25.98;;;;;;;;;;4929037;29;20051;-68
2023/05/17 01:49:59;;;;;;;70.50;26.83;;;;;;;;;;4925618;29;20055;-68
2023/05/17 01:52:30;;;;;;;63.08;26.15;;;;;;;;;;4924916;29;20052;-69
2023/05/17 01:55:03;;;;;;;59.15;23.85;;;;;;;;;;4923334;29;20482;-69
2023/05/17 01:57:32;;;;;;;58.20;26.05;;;;;;;;;;4928604;29;20052;-68
2023/05/17 01:59:59;;;;;;;50.05;26.73;;;;;;;;;;4924085;29;20059;-69
2023/05/17 02:02:27;;;;;;;77.03;24.60;;;;;;;;;;5050354;23;20417;-69
2023/05/17 02:04:57;;;;;;;51.35;24.50;;;;;;;;;;4924178;29;20047;-69
2023/05/17 02:07:24;;;;;;;53.67;23.92;;;;;;;;;;4921656;29;20498;-71
2023/05/17 02:09:54;;;;;;;54.70;25.40;;;;;;;;;;4928350;29;20405;-68
2023/05/17 02:12:20;;;;;;;71.40;23.92;;;;;;;;;;4927954;29;20050;-69
2023/05/17 02:14:47;;;;;;;54.75;24.73;;;;;;;;;;4925844;29;20051;-68
2023/05/17 02:17:13;;;;;;;65.75;24.25;;;;;;;;;;4924011;29;20483;-66
2023/05/17 02:19:42;;;;;;;58.65;22.52;;;;;;;;;;4923985;29;20043;-68
2023/05/17 02:22:09;;;;;;;38.78;23.13;;;;;;;;;;4929866;29;20051;-68
2023/05/17 02:24:35;;;;;;;64.72;23.63;;;;;;;;;;4929073;29;20046;-69
2023/05/17 02:27:03;;;;;;;55.47;23.23;;;;;;;;;;4927498;29;20075;-68
2023/05/17 02:29:31;;;;;;;53.28;21.95;;;;;;;;;;4928708;29;20052;-67
2023/05/17 02:31:58;;;;;;;55.05;21.05;;;;;;;;;;4913703;29;20796;-68
2023/05/17 02:34:25;;;;;;;59.58;24.42;;;;;;;;;;4926723;29;20043;-67
2023/05/17 02:36:52;;;;;;;59.17;22.63;;;;;;;;;;4926153;29;20044;-68
2023/05/17 02:39:19;;;;;;;47.63;24.70;;;;;;;;;;4924522;29;20039;-67
2023/05/17 02:41:45;;;;;;;69.47;22.73;;;;;;;;;;4930805;29;20079;-67
2023/05/17 02:44:12;;;;;;;70.50;22.88;;;;;;;;;;4931882;29;20055;-68
2023/05/17 02:46:39;;;;;;;47.30;22.95;;;;;;;;;;4928877;29;20071;-68
2023/05/17 02:49:06;;;;;;;62.00;22.35;;;;;;;;;;4927610;29;20136;-69
2023/05/17 02:51:33;;;;;;;65.43;24.38;;;;;;;;;;4923223;29;20063;-68
2023/05/17 02:53:59;;;;;;;55.08;19.90;;;;;;;;;;4914156;29;20056;-68
2023/05/17 02:56:27;;;;;;;69.63;22.42;;;;;;;;;;4925068;29;20091;-69
2023/05/17 02:58:56;;;;;;;59.08;20.33;;;;;;;;;;4910078;29;20044;-67
2023/05/17 03:01:23;;;;;;;55.42;22.83;;;;;;;;;;4910035;29;20044;-67
2023/05/17 03:03:50;;;;;;;60.15;23.08;;;;;;;;;;4907841;29;20052;-65
2023/05/17 03:06:18;;;;;;;62.45;21.60;;;;;;;;;;4928604;29;20298;-68
2023/05/17 03:08:45;;;;;;;52.80;22.08;;;;;;;;;;4911629;29;20060;-67
2023/05/17 03:11:12;;;;;;;102.97;23.45;;;;;;;;;;4930855;29;20084;-66
2023/05/17 03:13:39;;;;;;;59.63;22.50;;;;;;;;;;4935035;29;20405;-66
2023/05/17 03:16:08;;;;;;;51.83;20.95;;;;;;;;;;4910504;29;20198;-70
2023/05/17 03:18:34;;;;;;;60.00;20.00;;;;;;;;;;4929298;29;20036;-67
2023/05/17 03:21:01;;;;;;;47.25;19.15;;;;;;;;;;4908415;29;20454;-66
2023/05/17 03:23:28;;;;;;;53.35;18.52;;;;;;;;;;4926256;29;20047;-66
2023/05/17 03:25:59;;;;;;;65.32;22.45;;;;;;;;;;4924060;29;20059;-67
2023/05/17 03:28:28;;;;;;;81.68;26.80;;;;;;;;;;4928834;29;20055;-68
2023/05/17 03:30:56;;;;;;;55.92;24.63;;;;;;;;;;4913721;29;20070;-66
2023/05/17 03:33:25;;;;;;;46.83;21.00;;;;;;;;;;4924410;29;20058;-66
2023/05/17 03:35:52;;;;;;;42.95;20.02;;;;;;;;;;4925403;29;20455;-67
2023/05/17 03:38:19;;;;;;;60.05;22.35;;;;;;;;;;4909634;29;20405;-65
2023/05/17 03:40:46;;;;;;;47.75;20.40;;;;;;;;;;4927223;29;20087;-65
2023/05/17 03:43:13;;;;;;;52.28;20.17;;;;;;;;;;4925629;29;20056;-66
2023/05/17 03:45:40;;;;;;;55.97;22.70;;;;;;;;;;4927874;29;20047;-68
2023/05/17 03:48:11;;;;;;;52.22;18.30;;;;;;;;;;4929624;29;20536;-67
2023/05/17 03:50:39;;;;;;;60.08;21.33;;;;;;;;;;4925722;29;20072;-67
2023/05/17 03:53:08;;;;;;;81.97;23.98;;;;;;;;;;4925578;29;20048;-66
2023/05/17 03:55:34;;;;;;;53.78;21.27;;;;;;;;;;4918525;29;20054;-67
2023/05/17 03:58:01;;;;;;;66.55;22.42;;;;;;;;;;4923577;29;20055;-66
2023/05/17 04:00:28;;;;;;;54.80;22.02;;;;;;;;;;4913004;29;20090;-67
2023/05/17 04:03:00;;;;;;;49.40;20.85;;;;;;;;;;4906775;29;20064;-68
2023/05/17 04:05:27;;;;;;;81.40;22.52;;;;;;;;;;4925306;29;20032;-68
2023/05/17 04:07:54;;;;;;;37.53;19.48;;;;;;;;;;4927465;29;20055;-68
2023/05/17 04:10:21;;;;;;;57.85;22.77;;;;;;;;;;4912053;29;20521;-70
2023/05/17 04:12:48;;;;;;;40.22;19.73;;;;;;;;;;4935735;29;20063;-68
2023/05/17 04:15:15;;;;;;;55.95;22.48;;;;;;;;;;4916372;29;20405;-67
2023/05/17 04:17:42;;;;;;;53.80;22.40;;;;;;;;;;4913418;29;20043;-68
2023/05/17 04:20:09;;;;;;;94.72;25.73;;;;;;;;;;4907753;29;20498;-68
2023/05/17 04:22:36;;;;;;;56.92;24.92;;;;;;;;;;4905218;29;20442;-67
2023/05/17 04:25:03;;;;;;;51.95;22.90;;;;;;;;;;4928031;29;20052;-66
2023/05/17 04:27:32;;;;;;;79.78;26.48;;;;;;;;;;4907903;29;20423;-67
2023/05/17 04:29:59;;;;;;;46.90;27.38;;;;;;;;;;4925203;29;20067;-67
2023/05/17 04:32:26;;;;;;;70.18;25.25;;;;;;;;;;4916972;29;20043;-66
2023/05/17 04:34:55;;;;;;;49.22;21.67;;;;;;;;;;4907678;29;20096;-66
2023/05/17 04:37:23;;;;;;;50.95;26.05;;;;;;;;;;4927540;29;20529;-67
2023/05/17 04:39:53;;;;;;;46.28;23.58;;;;;;;;;;4923869;29;20044;-67
2023/05/17 04:42:20;;;;;;;71.25;23.58;;;;;;;;;;4923315;29;20138;-66
2023/05/17 04:44:52;;;;;;;50.15;24.02;;;;;;;;;;4905727;29;20066;-66
2023/05/17 04:47:19;;;;;;;67.47;25.50;;;;;;;;;;4927443;29;20047;-66
2023/05/17 04:49:45;;;;;;;64.75;25.83;;;;;;;;;;4923783;29;20051;-68
2023/05/17 04:52:12;;;;;;;65.38;26.20;;;;;;;;;;4926637;29;20059;-66
2023/05/17 04:54:39;;;;;;;66.25;23.73;;;;;;;;;;4927199;29;20048;-66
2023/05/17 04:57:05;;;;;;;55.88;25.30;;;;;;;;;;4909396;29;20056;-66
2023/05/17 04:59:47;;;;;;;46.60;23.08;;;;;;;;;;4924342;29;20052;-67
2023/05/17 05:02:14;;;;;;;108.68;29.40;;;;;;;;;;4923340;29;20055;-67
2023/05/17 05:04:40;;;;;;;54.80;25.75;;;;;;;;;;4923283;29;20062;-66
2023/05/17 05:07:09;;;;;;;60.35;25.13;;;;;;;;;;4923520;29;20055;-67
2023/05/17 05:09:36;;;;;;;55.83;24.38;;;;;;;;;;4933975;29;20099;-66
2023/05/17 05:12:04;;;;;;;47.67;23.85;;;;;;;;;;4929067;29;20044;-67
2023/05/17 05:14:30;;;;;;;67.35;22.92;;;;;;;;;;4924734;29;20130;-66
2023/05/17 05:16:58;;;;;;;55.25;22.73;;;;;;;;;;4922918;29;20071;-68
2023/05/17 05:19:25;;;;;;;57.95;22.10;;;;;;;;;;4906194;29;20058;-66
2023/05/17 05:21:53;;;;;;;44.97;21.90;;;;;;;;;;4924689;29;20040;-66
2023/05/17 05:24:20;;;;;;;57.65;21.88;;;;;;;;;;4926194;29;20051;-69
2023/05/17 05:26:46;;;;;;;52.42;20.75;;;;;;;;;;4906483;29;20052;-68
2023/05/17 05:29:17;;;;;;;78.15;22.80;;;;;;;;;;4924859;29;20502;-67
2023/05/17 05:31:43;;;;;;;94.53;23.88;;;;;;;;;;4922917;29;20060;-66
2023/05/17 05:34:11;;;;;;;55.53;23.00;;;;;;;;;;4925860;29;20064;-67
2023/05/17 05:36:37;;;;;;;56.90;20.85;;;;;;;;;;4921375;29;20047;-67
2023/05/17 05:39:07;;;;;;;51.08;21.42;;;;;;;;;;4924238;29;20055;-66
2023/05/17 05:41:35;;;;;;;61.70;19.05;;;;;;;;;;4905064;29;20387;-66
2023/05/17 05:44:02;;;;;;;53.72;20.15;;;;;;;;;;4909517;29;20090;-67
2023/05/17 05:46:28;;;;;;;70.68;18.38;;;;;;;;;;4926394;29;20050;-66
2023/05/17 05:48:56;;;;;;;41.50;15.02;;;;;;;;;;4922610;29;20079;-66
2023/05/17 05:51:23;;;;;;;32.72;15.80;;;;;;;;;;4921358;29;20520;-66
2023/05/17 05:53:50;;;;;;;61.45;17.73;;;;;;;;;;4911749;29;20059;-67
2023/05/17 05:56:23;;;;;;;53.05;17.25;;;;;;;;;;4923879;29;20489;-67
2023/05/17 05:58:50;;;;;;;50.85;16.05;;;;;;;;;;4933415;29;20459;-69
2023/05/17 06:01:17;;;;;;;43.05;18.13;;;;;;;;;;4923604;29;20060;-66
2023/05/17 06:03:44;;;;;;;61.67;17.85;;;;;;;;;;4926383;29;20091;-66
2023/05/17 06:06:11;;;;;;;41.90;16.15;;;;;;;;;;4931915;29;20047;-67
2023/05/17 06:08:37;;;;;;;60.30;16.98;;;;;;;;;;4931403;29;20383;-70
2023/05/17 06:11:04;;;;;;;60.95;16.02;;;;;;;;;;4914055;29;20048;-66
2023/05/17 06:13:31;;;;;;;54.80;15.30;;;;;;;;;;4927183;29;20086;-66
2023/05/17 06:15:58;;;;;;;27.20;11.85;;;;;;;;;;4933026;29;20040;-66
2023/05/17 06:18:25;;;;;;;41.15;13.00;;;;;;;;;;4939086;29;20043;-66
2023/05/17 06:20:51;;;;;;;42.53;13.00;;;;;;;;;;4934328;29;20126;-66
2023/05/17 06:23:18;;;;;;;49.15;13.90;;;;;;;;;;4928749;29;20091;-66
2023/05/17 06:25:45;;;;;;;50.70;13.48;;;;;;;;;;4925503;29;20055;-66
2023/05/17 06:28:11;;;;;;;35.50;12.32;;;;;;;;;;4927452;29;20387;-67
2023/05/17 06:30:38;;;;;;;40.72;12.95;;;;;;;;;;4931001;29;20075;-66
2023/05/17 06:33:04;;;;;;;25.02;11.75;;;;;;;;;;4927684;29;20052;-67
2023/05/17 06:35:31;;;;;;;51.72;13.52;;;;;;;;;;4928377;29;20036;-67
2023/05/17 06:38:18;;;;;;;59.55;13.68;;;;;;;;;;4926353;29;21364;-66
2023/05/17 06:40:44;;;;;;;60.55;30.58;;;;;;;;;;4930457;29;20108;-67
2023/05/17 06:43:11;;;;;;;110.57;101.63;;;;;;;;;;4932792;29;20539;-67
2023/05/17 06:45:45;;;;;;;59.70;18.73;;;;;;;;;;4925994;29;20044;-65
2023/05/17 06:48:12;;;;;;;47.25;12.90;;;;;;;;;;4927660;29;20071;-65
2023/05/17 06:50:44;;;;;;;147.43;20.48;;;;;;;;;;4926895;29;20051;-64
2023/05/17 06:53:11;;;;;;;54.83;12.93;;;;;;;;;;4932483;29;20055;-69
2023/05/17 06:55:38;;;;;;;63.30;13.50;;;;;;;;;;4930791;29;20051;-67
2023/05/17 06:58:04;;;;;;;27.45;11.00;;;;;;;;;;4927860;29;20048;-68
2023/05/17 07:00:37;;;;;;;41.25;12.60;;;;;;;;;;4911045;29;20048;-66
2023/05/17 07:03:09;;;;;;;57.60;14.23;;;;;;;;;;4927964;29;20138;-70
2023/05/17 07:05:39;;;;;;;68.03;12.68;;;;;;;;;;4912927;29;20051;-65
2023/05/17 07:08:06;;;;;;;62.65;13.13;;;;;;;;;;4928166;29;20098;-70
2023/05/17 07:10:34;;;;;;;49.13;11.77;;;;;;;;;;4913484;29;20047;-69
2023/05/17 07:13:00;;;;;;;55.60;14.15;;;;;;;;;;4928850;29;20055;-67
2023/05/17 07:15:27;;;;;;;34.60;11.25;;;;;;;;;;4929106;29;20521;-69
2023/05/17 07:17:54;;;;;;;35.78;11.45;;;;;;;;;;4928241;29;20044;-68
2023/05/17 07:20:21;;;;;;;53.03;13.48;;;;;;;;;;4929660;29;20522;-68
2023/05/17 07:22:47;;;;;;;33.05;12.35;;;;;;;;;;4930190;29;20048;-65
2023/05/17 07:25:14;;;;;;;32.13;11.35;;;;;;;;;;4938596;29;20047;-68
2023/05/17 07:27:41;;;;;;;37.58;11.57;;;;;;;;;;4926730;29;20103;-66
2023/05/17 07:30:08;;;;;;;33.97;11.40;;;;;;;;;;4928724;29;20521;-66
2023/05/17 07:32:34;;;;;;;44.30;11.85;;;;;;;;;;4927807;29;20445;-66
2023/05/17 07:35:01;;;;;;;39.63;11.93;;;;;;;;;;4924981;29;20047;-67
2023/05/17 07:37:31;;;;;;;46.05;12.75;;;;;;;;;;4930200;29;20052;-69
2023/05/17 07:39:57;;;;;;;37.90;12.90;;;;;;;;;;4930653;29;20051;-67
2023/05/17 07:42:24;;;;;;;40.00;13.02;;;;;;;;;;4929722;29;20039;-67
2023/05/17 07:44:51;;;;;;;33.20;12.73;;;;;;;;;;4927176;29;20481;-67
2023/05/17 07:47:17;;;;;;;79.22;15.38;;;;;;;;;;4929144;29;20064;-66
2023/05/17 07:49:44;;;;;;;42.53;13.90;;;;;;;;;;4915201;29;20045;-67
2023/05/17 07:52:11;;;;;;;36.67;12.38;;;;;;;;;;4929592;29;20050;-64
2023/05/17 07:54:38;;;;;;;54.20;13.25;;;;;;;;;;4928559;29;20557;-68
2023/05/17 07:57:04;;;;;;;40.15;11.77;;;;;;;;;;4927502;29;20062;-66
2023/05/17 07:59:31;;;;;;;90.38;15.55;;;;;;;;;;4925716;29;20044;-68
2023/05/17 08:01:58;;;;;;;36.33;13.73;;;;;;;;;;4932216;29;20090;-66
2023/05/17 08:04:25;;;;;;;56.50;12.75;;;;;;;;;;4930961;29;20056;-68
2023/05/17 08:06:54;;;;;;;69.53;15.40;;;;;;;;;;4929666;29;20095;-68
2023/05/17 08:09:21;;;;;;;46.35;13.80;;;;;;;;;;4925924;29;20040;-67
2023/05/17 08:11:49;;;;;;;60.60;20.60;;;;;;;;;;4926186;29;20051;-67
2023/05/17 08:14:15;;;;;;;60.08;13.93;;;;;;;;;;4924096;29;20068;-66
2023/05/17 08:16:45;;;;;;;57.90;21.60;;;;;;;;;;4928715;29;20131;-66
2023/05/17 08:19:13;;;;;;;54.92;16.38;;;;;;;;;;4929581;29;20051;-65
2023/05/17 08:21:41;;;;;;;71.88;16.98;;;;;;;;;;4934869;29;20047;-66
2023/05/17 08:24:08;;;;;;;65.25;13.70;;;;;;;;;;4929131;29;20071;-66
2023/05/17 08:26:34;;;;;;;39.55;12.15;;;;;;;;;;4932488;29;20059;-64
2023/05/17 08:29:01;;;;;;;67.80;21.10;;;;;;;;;;4928955;29;20044;-67
2023/05/17 08:31:30;;;;;;;57.42;17.58;;;;;;;;;;4931636;29;20494;-64
2023/05/17 08:33:56;;;;;;;30.55;11.68;;;;;;;;;;4928118;29;20040;-64
2023/05/17 08:36:24;;;;;;;105.78;14.45;;;;;;;;;;4931900;29;20051;-64
2023/05/17 08:38:51;;;;;;;118.15;17.20;;;;;;;;;;4927770;29;20075;-64
2023/05/17 08:41:19;;;;;;;47.58;14.75;;;;;;;;;;4923905;29;20413;-66
2023/05/17 08:43:47;;;;;;;38.03;11.80;;;;;;;;;;4927272;29;20047;-68
2023/05/17 08:46:15;;;;;;;32.20;12.75;;;;;;;;;;4915416;29;20107;-67
2023/05/17 08:48:42;;;;;;;43.30;12.70;;;;;;;;;;4924563;29;20052;-67
2023/05/17 08:51:10;;;;;;;72.20;17.95;;;;;;;;;;4926908;29;20135;-68
2023/05/17 08:53:37;;;;;;;38.78;10.50;;;;;;;;;;4930837;29;20119;-66
2023/05/17 08:56:09;;;;;;;50.75;11.32;;;;;;;;;;4924710;29;20104;-68
2023/05/17 08:58:37;;;;;;;51.25;13.90;;;;;;;;;;4927172;29;20051;-65
2023/05/17 09:01:22;;;;;;;37.67;10.98;;;;;;;;;;4927052;29;20054;-68
2023/05/17 09:03:52;;;;;;;42.25;12.20;;;;;;;;;;4924453;29;20092;-66
2023/05/17 09:06:20;;;;;;;42.10;15.32;;;;;;;;;;4929903;29;20056;-66
2023/05/17 09:08:49;;;;;;;47.20;10.77;;;;;;;;;;4925882;29;20036;-66
2023/05/17 09:11:26;;;;;;;55.28;12.65;;;;;;;;;;4923005;29;20052;-66
2023/05/17 09:13:57;;;;;;;43.15;9.80;;;;;;;;;;4923694;29;20048;-67
2023/05/17 09:16:25;;;;;;;65.40;11.18;;;;;;;;;;4921852;29;20128;-66
2023/05/17 09:18:53;;;;;;;46.95;9.25;;;;;;;;;;4925963;29;20050;-68
2023/05/17 09:21:21;;;;;;;83.15;15.15;;;;;;;;;;4924652;29;20051;-67
2023/05/17 09:23:49;;;;;;;46.97;10.23;;;;;;;;;;4925544;29;20043;-67
2023/05/17 09:26:40;;;;;;;51.50;12.18;;;;;;;;;;4928002;29;20131;-66
2023/05/17 09:29:08;;;;;;;92.10;15.10;;;;;;;;;;4905634;29;20052;-66
2023/05/17 09:31:36;;;;;;;43.70;9.75;;;;;;;;;;4933614;29;20044;-67
2023/05/17 09:34:04;;;;;;;61.42;10.05;;;;;;;;;;4929208;29;20054;-65
2023/05/17 09:36:31;;;;;;;31.40;10.88;;;;;;;;;;4914167;29;20052;-67
2023/05/17 09:39:06;;;;;;;30.95;11.60;;;;;;;;;;4924823;29;20122;-66
2023/05/17 09:41:44;;;;;;;39.65;10.80;;;;;;;;;;4926255;29;20059;-67
2023/05/17 09:44:12;;;;;;;77.30;15.77;;;;;;;;;;4929149;29;20048;-69
2023/05/17 09:46:48;;;;;;;48.00;18.33;;;;;;;;;;4928300;29;20134;-66
2023/05/17 09:49:16;;;;;;;86.63;14.93;;;;;;;;;;4909404;29;20063;-66
2023/05/17 09:51:47;;;;;;;39.33;12.23;;;;;;;;;;4930568;29;20039;-65
2023/05/17 09:54:16;;;;;;;45.08;13.23;;;;;;;;;;4927182;29;20119;-66
2023/05/17 09:56:51;;;;;;;33.05;11.10;;;;;;;;;;4928508;29;20075;-66
2023/05/17 09:59:21;;;;;;;95.40;18.17;;;;;;;;;;4909833;29;20055;-66
2023/05/17 10:01:49;;;;;;;44.10;12.93;;;;;;;;;;4931274;29;20417;-65
2023/05/17 10:04:19;;;;;;;38.05;14.85;;;;;;;;;;4930638;29;20052;-65
2023/05/17 10:06:48;;;;;;;48.38;13.27;;;;;;;;;;4928787;29;20127;-64
2023/05/17 10:09:20;;;;;;;48.67;16.77;;;;;;;;;;4930152;29;20438;-65
2023/05/17 10:11:48;;;;;;;46.80;14.32;;;;;;;;;;4929291;29;20107;-67
2023/05/17 10:14:22;;;;;;;74.70;21.80;;;;;;;;;;4929301;29;20047;-67
2023/05/17 10:16:50;;;;;;;54.42;20.13;;;;;;;;;;4929510;29;20450;-65
2023/05/17 10:19:19;;;;;;;39.67;17.17;;;;;;;;;;4932521;29;20119;-67
2023/05/17 10:21:50;;;;;;;56.78;22.48;;;;;;;;;;4924687;29;20103;-66
2023/05/17 10:24:18;;;;;;;47.55;13.55;;;;;;;;;;4927515;29;20387;-66
2023/05/17 10:26:45;;;;;;;48.40;16.38;;;;;;;;;;4927348;29;20091;-65
2023/05/17 10:29:12;;;;;;;69.22;16.65;;;;;;;;;;4928395;29;20051;-66
2023/05/17 10:31:40;;;;;;;41.60;16.73;;;;;;;;;;4926301;29;20047;-68
2023/05/17 10:34:07;;;;;;;60.55;18.48;;;;;;;;;;4931641;29;20048;-67
2023/05/17 10:36:34;;;;;;;52.58;18.02;;;;;;;;;;4931935;29;20059;-67
2023/05/17 10:39:01;;;;;;;52.92;21.38;;;;;;;;;;4927669;29;20055;-66
2023/05/17 10:41:30;;;;;;;73.75;22.50;;;;;;;;;;4927409;29;20048;-66
2023/05/17 10:43:57;;;;;;;58.05;17.08;;;;;;;;;;4927180;29;20052;-66
2023/05/17 10:46:23;;;;;;;47.80;16.08;;;;;;;;;;4924330;29;20079;-66
2023/05/17 10:48:51;;;;;;;45.50;14.75;;;;;;;;;;4930549;29;20074;-64
2023/05/17 10:51:35;;;;;;;44.65;19.73;;;;;;;;;;4928814;29;20068;-63
2023/05/17 10:54:04;;;;;;;37.53;15.52;;;;;;;;;;4928253;29;20048;-63
2023/05/17 10:56:32;;;;;;;61.53;18.42;;;;;;;;;;4927583;29;20048;-65
2023/05/17 10:59:15;;;;;;;34.35;11.95;;;;;;;;;;4927999;29;20463;-65
2023/05/17 11:01:49;;;;;;;33.00;11.57;;;;;;;;;;4932768;29;20442;-65
2023/05/17 11:04:21;;;;;;;54.88;13.70;;;;;;;;;;4931636;29;20048;-64
2023/05/17 11:06:47;;;;;;;59.45;17.58;;;;;;;;;;4930353;29;20044;-64
2023/05/17 11:09:15;;;;;;;76.95;16.25;;;;;;;;;;4928926;29;20508;-64
2023/05/17 11:12:01;;;;;;;48.00;15.73;;;;;;;;;;4934209;29;20047;-63
2023/05/17 11:14:42;;;;;;;65.55;15.35;;;;;;;;;;4926368;29;20120;-63
2023/05/17 11:17:16;;;;;;;79.38;14.75;;;;;;;;;;4925476;29;20508;-64
2023/05/17 11:20:04;;;;;;;42.55;13.70;;;;;;;;;;4924582;29;20044;-66
2023/05/17 11:22:39;;;;;;;48.05;12.50;;;;;;;;;;4927379;29;20397;-65
2023/05/17 11:25:07;;;;;;;68.20;10.90;;;;;;;;;;4925081;29;20076;-64
2023/05/17 11:27:52;;;;;;;54.33;11.25;;;;;;;;;;4925081;29;20468;-65
2023/05/17 11:30:28;;;;;;;67.82;11.27;;;;;;;;;;4928282;29;20044;-63
2023/05/17 11:33:02;;;;;;;43.10;10.15;;;;;;;;;;4931551;29;20513;-65
2023/05/17 11:35:37;;;;;;;61.65;12.07;;;;;;;;;;4934794;29;20122;-63
2023/05/17 11:38:12;;;;;;;50.35;11.35;;;;;;;;;;4939880;29;20055;-64
2023/05/17 11:40:41;;;;;;;35.78;10.73;;;;;;;;;;4932490;29;20486;-65
2023/05/17 11:43:08;;;;;;;47.38;11.23;;;;;;;;;;4932133;29;20215;-64
2023/05/17 11:46:03;;;;;;;70.85;11.85;;;;;;;;;;4935257;29;20139;-66
2023/05/17 11:48:30;;;;;;;;;;;;;;;;;;4923323;29;20087;-64
2023/05/17 11:51:07;;;;;;;54.08;11.23;;;;;;;;;;4930765;29;19923;-66
2023/05/17 11:53:43;;;;;;;79.57;14.38;;;;;;;;;;4931173;29;20044;-66
2023/05/17 11:56:16;;;;;;;115.97;20.50;;;;;;;;;;4942507;29;20142;-66
2023/05/17 11:58:50;;;;;;;57.88;18.92;;;;;;;;;;4934595;29;20478;-66
2023/05/17 12:01:17;;;;;;;51.88;15.10;;;;;;;;;;4928097;29;20397;-66
2023/05/17 12:03:46;;;;;;;63.53;18.70;;;;;;;;;;4932536;29;20048;-65
2023/05/17 12:06:14;;;;;;;65.25;18.25;;;;;;;;;;4924059;29;20095;-65
2023/05/17 12:08:45;;;;;;;69.68;22.35;;;;;;;;;;4927085;29;20040;-66
2023/05/17 12:11:14;;;;;;;79.80;20.63;;;;;;;;;;4925686;29;20506;-65
2023/05/17 12:13:41;;;;;;;87.82;16.30;;;;;;;;;;4926283;29;20132;-68
2023/05/17 12:16:12;;;;;;;28.27;14.25;;;;;;;;;;4925875;29;20051;-66
2023/05/17 12:18:44;;;;;;;51.30;14.38;;;;;;;;;;4928447;29;20070;-66
2023/05/17 12:21:13;;;;;;;54.58;15.07;;;;;;;;;;4926420;29;20401;-66
2023/05/17 12:23:42;;;;;;;68.70;17.02;;;;;;;;;;4927097;29;20087;-65
2023/05/17 12:26:08;;;;;;;81.50;15.73;;;;;;;;;;4924764;29;20065;-64
2023/05/17 12:28:36;;;;;;;71.25;17.50;;;;;;;;;;4922693;29;20062;-65
2023/05/17 12:31:05;;;;;;;50.55;18.20;;;;;;;;;;4930854;29;20051;-66
2023/05/17 12:33:34;;;;;;;68.63;21.80;;;;;;;;;;4929358;29;20650;-65
2023/05/17 12:36:01;;;;;;;42.03;16.00;;;;;;;;;;4926582;29;20509;-65
2023/05/17 12:38:31;;;;;;;66.13;16.17;;;;;;;;;;4926927;29;20067;-64
2023/05/17 12:41:02;;;;;;;59.53;15.13;;;;;;;;;;4924088;29;20103;-64
2023/05/17 12:43:30;;;;;;;49.80;16.55;;;;;;;;;;4928591;29;20043;-64
2023/05/17 12:46:02;;;;;;;54.42;23.58;;;;;;;;;;4921442;29;20050;-65
2023/05/17 12:48:30;;;;;;;72.22;23.15;;;;;;;;;;4927661;29;20036;-65
2023/05/17 12:51:04;;;;;;;51.08;19.02;;;;;;;;;;4925902;29;20474;-64
2023/05/17 12:53:35;;;;;;;57.90;16.38;;;;;;;;;;4926133;29;20178;-66
2023/05/17 12:56:02;;;;;;;53.42;19.25;;;;;;;;;;4925325;29;20048;-63
2023/05/17 12:58:28;;;;;;;63.08;17.55;;;;;;;;;;4925224;29;20103;-67
2023/05/17 13:00:59;;;;;;;46.33;14.45;;;;;;;;;;4925791;29;20071;-68
2023/05/17 13:03:26;;;;;;;38.75;13.45;;;;;;;;;;4928991;29;20064;-65
2023/05/17 13:05:56;;;;;;;38.45;13.45;;;;;;;;;;4924227;29;20050;-66
2023/05/17 13:08:23;;;;;;;79.22;16.48;;;;;;;;;;4924360;29;20051;-67
2023/05/17 13:10:50;;;;;;;34.45;13.32;;;;;;;;;;4921703;29;20103;-67
2023/05/17 13:13:18;;;;;;;37.60;13.65;;;;;;;;;;4924651;29;20529;-66
2023/05/17 13:15:49;;;;;;;65.90;13.13;;;;;;;;;;4927606;29;20061;-67
2023/05/17 13:18:16;;;;;;;82.30;16.90;;;;;;;;;;4924443;29;20048;-66
2023/05/17 13:20:43;;;;;;;67.07;18.02;;;;;;;;;;4925202;29;20040;-66
2023/05/17 13:23:13;;;;;;;143.48;23.85;;;;;;;;;;4920313;29;20142;-64
2023/05/17 13:25:42;;;;;;;69.68;18.20;;;;;;;;;;4922244;29;20516;-67
2023/05/17 13:28:13;;;;;;;59.08;16.98;;;;;;;;;;4925613;29;20052;-68
2023/05/17 13:30:51;;;;;;;89.25;20.85;;;;;;;;;;4925961;29;20047;-69
2023/05/17 13:33:23;;;;;;;71.00;17.40;;;;;;;;;;4923088;29;20048;-66
2023/05/17 13:35:50;;;;;;;76.32;14.20;;;;;;;;;;4919521;29;20040;-66
2023/05/17 13:38:16;;;;;;;88.57;14.82;;;;;;;;;;4922904;29;20495;-65
2023/05/17 13:40:43;;;;;;;65.82;13.40;;;;;;;;;;4925916;29;20051;-67
2023/05/17 13:43:10;;;;;;;43.65;12.25;;;;;;;;;;4905501;29;20058;-65
2023/05/17 13:45:36;;;;;;;61.88;12.25;;;;;;;;;;4920740;29;20048;-65
2023/05/17 13:48:03;;;;;;;52.63;11.93;;;;;;;;;;4929516;29;20127;-66
2023/05/17 13:50:30;;;;;;;48.15;11.65;;;;;;;;;;4908378;29;20521;-65
2023/05/17 13:52:57;;;;;;;66.25;13.90;;;;;;;;;;4925273;29;20384;-65
2023/05/17 13:55:24;;;;;;;36.50;10.40;;;;;;;;;;4922389;29;20052;-64
2023/05/17 13:57:51;;;;;;;51.65;11.23;;;;;;;;;;4920957;29;20095;-66
2023/05/17 14:00:18;;;;;;;53.83;11.60;;;;;;;;;;4925018;29;20103;-65
2023/05/17 14:02:45;;;;;;;48.58;10.63;;;;;;;;;;4924009;29;20055;-67
2023/05/17 14:05:13;;;;;;;44.55;10.10;;;;;;;;;;4924496;29;20056;-66
2023/05/17 14:07:41;;;;;;;41.97;9.82;;;;;;;;;;4923141;29;20036;-66
2023/05/17 14:10:08;;;;;;;39.83;10.50;;;;;;;;;;4918441;29;20076;-67
2023/05/17 14:12:35;;;;;;;46.53;10.48;;;;;;;;;;4927481;29;20047;-68
2023/05/17 14:15:02;;;;;;;41.40;10.02;;;;;;;;;;4923813;29;20066;-67
2023/05/17 14:17:28;;;;;;;83.05;12.40;;;;;;;;;;4908331;29;20083;-68
2023/05/17 14:19:55;;;;;;;36.85;8.63;;;;;;;;;;4923559;29;20082;-70
2023/05/17 14:22:22;;;;;;;47.47;9.70;;;;;;;;;;4924899;29;20044;-67
2023/05/17 14:24:49;;;;;;;38.13;8.43;;;;;;;;;;4927669;29;20127;-69